Time;durP1;ratioP1;P1;durP2;ratioP2;P2;SDS_P1;SDS_P2;PMS_P1;PMS_P2;Temp;Humidity;BMP_temperature;BMP_pressure;BME280_temperature;BME280_humidity;BME280_pressure;Samples;Min_cycle;Max_cycle;Signal;HPM_P1;HPM_P2
2022/09/21 00:01:57;;;;;;;1.80;0.70;;;;;;;;;;12615015;28;20031;-78
2022/09/21 00:08:05;;;;;;;1.05;0.55;;;;;;;;;;12614516;28;20032;-78
2022/09/21 00:14:09;;;;;;;0.40;0.40;;;;;;;;;;12614053;28;20433;-80
2022/09/21 00:20:11;;;;;;;0.60;0.50;;;;;;;;;;12613610;28;20036;-79
2022/09/21 00:26:12;;;;;;;0.30;0.30;;;;;;;;;;12613021;28;20043;-79
2022/09/21 00:32:14;;;;;;;1.00;0.30;;;;;;;;;;12630967;28;20062;-79
2022/09/21 00:38:16;;;;;;;0.40;0.27;;;;;;;;;;12630369;28;20036;-79
2022/09/21 00:44:27;;;;;;;0.15;0.13;;;;;;;;;;12630320;28;20039;-78
2022/09/21 00:50:29;;;;;;;0.35;0.28;;;;;;;;;;12611758;28;20056;-79
2022/09/21 00:56:32;;;;;;;0.28;0.20;;;;;;;;;;12630144;28;20373;-78
2022/09/21 01:02:34;;;;;;;0.10;0.10;;;;;;;;;;12629768;28;20036;-79
2022/09/21 01:08:37;;;;;;;0.38;0.20;;;;;;;;;;12629071;28;20039;-78
2022/09/21 01:15:08;;;;;;;0.25;0.20;;;;;;;;;;12629656;28;20031;-78
2022/09/21 01:21:23;;;;;;;0.30;0.22;;;;;;;;;;12607260;28;20408;-78
2022/09/21 01:27:40;;;;;;;0.10;0.10;;;;;;;;;;12629380;28;20047;-79
2022/09/21 01:33:45;;;;;;;0.43;0.43;;;;;;;;;;12628842;28;20040;-79
2022/09/21 01:39:49;;;;;;;1.05;0.30;;;;;;;;;;12629407;28;20054;-79
2022/09/21 01:45:53;;;;;;;0.35;0.35;;;;;;;;;;12629467;28;20032;-79
2022/09/21 01:51:58;;;;;;;1.95;0.50;;;;;;;;;;12610600;28;20421;-78
2022/09/21 01:58:11;;;;;;;0.22;0.22;;;;;;;;;;12629204;28;20123;-79
2022/09/21 02:04:14;;;;;;;0.30;0.30;;;;;;;;;;12627832;28;20123;-78
2022/09/21 02:10:31;;;;;;;0.30;0.20;;;;;;;;;;12628477;28;20047;-79
2022/09/21 02:16:35;;;;;;;0.40;0.20;;;;;;;;;;12632711;28;20115;-79
2022/09/21 02:22:48;;;;;;;0.20;0.20;;;;;;;;;;12636931;28;20084;-79
2022/09/21 02:28:54;;;;;;;0.57;0.43;;;;;;;;;;12636763;28;20342;-78
2022/09/21 02:35:02;;;;;;;0.50;0.30;;;;;;;;;;12636883;28;20051;-78
2022/09/21 02:41:16;;;;;;;0.50;0.45;;;;;;;;;;12635755;28;20055;-79
2022/09/21 02:47:23;;;;;;;0.82;0.50;;;;;;;;;;12635773;28;20100;-78
2022/09/21 02:53:28;;;;;;;0.60;0.60;;;;;;;;;;12634676;28;20051;-78
2022/09/21 02:59:30;;;;;;;0.85;0.50;;;;;;;;;;12634851;28;20036;-78
2022/09/21 03:05:32;;;;;;;1.00;0.50;;;;;;;;;;12636600;28;20032;-79
2022/09/21 03:11:34;;;;;;;1.20;0.50;;;;;;;;;;12634295;28;20367;-78
2022/09/21 03:17:36;;;;;;;0.43;0.40;;;;;;;;;;12634685;28;20040;-78
2022/09/21 03:23:38;;;;;;;1.50;0.45;;;;;;;;;;12598213;28;20043;-78
2022/09/21 03:29:40;;;;;;;0.52;0.40;;;;;;;;;;12632367;28;20051;-78
2022/09/21 03:35:42;;;;;;;0.55;0.50;;;;;;;;;;12606793;28;20028;-78
2022/09/21 03:41:44;;;;;;;0.30;0.30;;;;;;;;;;12633095;28;20054;-78
2022/09/21 03:47:46;;;;;;;0.95;0.30;;;;;;;;;;12633250;28;20088;-78
2022/09/21 03:53:48;;;;;;;0.37;0.37;;;;;;;;;;12632286;28;20170;-79
2022/09/21 03:59:49;;;;;;;0.60;0.50;;;;;;;;;;12614277;28;20274;-78
2022/09/21 04:05:51;;;;;;;0.37;0.20;;;;;;;;;;12632569;28;20028;-78
2022/09/21 04:11:53;;;;;;;1.70;0.40;;;;;;;;;;12614652;28;20066;-78
2022/09/21 04:17:55;;;;;;;0.40;0.40;;;;;;;;;;12632921;28;20031;-78
2022/09/21 04:23:57;;;;;;;0.60;0.50;;;;;;;;;;12632021;28;20281;-78
2022/09/21 04:29:59;;;;;;;0.40;0.20;;;;;;;;;;12631124;28;20051;-78
2022/09/21 04:36:01;;;;;;;0.53;0.47;;;;;;;;;;12612203;28;20063;-79
2022/09/21 04:42:03;;;;;;;0.20;0.20;;;;;;;;;;12611336;28;20055;-79
2022/09/21 04:48:05;;;;;;;0.30;0.30;;;;;;;;;;12632505;28;20107;-80
2022/09/21 04:54:06;;;;;;;0.40;0.30;;;;;;;;;;12616376;28;20051;-79
2022/09/21 05:00:08;;;;;;;0.30;0.30;;;;;;;;;;12630592;28;20531;-79
2022/09/21 05:06:12;;;;;;;0.30;0.30;;;;;;;;;;12612183;28;20534;-79
2022/09/21 05:12:14;;;;;;;0.40;0.30;;;;;;;;;;12611460;28;20054;-80
2022/09/21 05:18:16;;;;;;;0.43;0.30;;;;;;;;;;12629881;28;20035;-79
2022/09/21 05:24:17;;;;;;;0.40;0.30;;;;;;;;;;12611238;28;20078;-78
2022/09/21 05:30:19;;;;;;;0.50;0.20;;;;;;;;;;12611518;28;20048;-77
2022/09/21 05:36:40;;;;;;;0.20;0.20;;;;;;;;;;12628544;28;20024;-79
2022/09/21 05:42:42;;;;;;;0.30;0.30;;;;;;;;;;12628028;28;20036;-78
2022/09/21 05:48:49;;;;;;;0.53;0.53;;;;;;;;;;12604263;28;20055;-78
2022/09/21 05:54:57;;;;;;;0.40;0.40;;;;;;;;;;12584866;28;20388;-79
2022/09/21 06:01:18;;;;;;;0.40;0.40;;;;;;;;;;12578113;28;20083;-81
2022/09/21 06:07:20;;;;;;;0.30;0.30;;;;;;;;;;12575776;28;20058;-81
2022/09/21 06:13:22;;;;;;;0.73;0.55;;;;;;;;;;12604128;28;20067;-79
2022/09/21 06:19:23;;;;;;;0.40;0.40;;;;;;;;;;12601861;28;20020;-79
2022/09/21 06:25:25;;;;;;;0.40;0.40;;;;;;;;;;12582162;28;20036;-78
2022/09/21 06:31:28;;;;;;;1.25;0.60;;;;;;;;;;12596606;28;20037;-78
2022/09/21 06:37:30;;;;;;;0.57;0.50;;;;;;;;;;12597359;28;20062;-79
2022/09/21 06:43:32;;;;;;;1.63;0.77;;;;;;;;;;12601109;28;20036;-79
2022/09/21 06:49:33;;;;;;;0.60;0.60;;;;;;;;;;12602449;28;20048;-80
2022/09/21 06:55:35;;;;;;;0.70;0.70;;;;;;;;;;12612072;28;20453;-81
2022/09/21 07:01:37;;;;;;;0.75;0.60;;;;;;;;;;12583978;28;20035;-80
2022/09/21 07:07:39;;;;;;;0.93;0.50;;;;;;;;;;12614893;28;20029;-80
2022/09/21 07:13:41;;;;;;;1.03;0.80;;;;;;;;;;12608116;28;20504;-80
2022/09/21 07:19:43;;;;;;;0.50;0.50;;;;;;;;;;12603911;28;20028;-79
2022/09/21 07:25:47;;;;;;;0.45;0.40;;;;;;;;;;12616863;28;20032;-79
2022/09/21 07:31:49;;;;;;;0.38;0.38;;;;;;;;;;12583208;28;20032;-79
2022/09/21 07:37:52;;;;;;;0.90;0.30;;;;;;;;;;12603846;28;20127;-79
2022/09/21 07:43:53;;;;;;;0.60;0.50;;;;;;;;;;12624064;28;20032;-77
2022/09/21 07:49:55;;;;;;;0.47;0.30;;;;;;;;;;12616838;28;20051;-78
2022/09/21 07:56:07;;;;;;;0.30;0.30;;;;;;;;;;12558517;28;20112;-78
2022/09/21 08:02:09;;;;;;;0.70;0.40;;;;;;;;;;12592182;28;20472;-77
2022/09/21 08:08:11;;;;;;;0.30;0.30;;;;;;;;;;12576500;28;20047;-77
2022/09/21 08:14:18;;;;;;;0.23;0.23;;;;;;;;;;12608199;28;20055;-80
2022/09/21 08:20:20;;;;;;;0.55;0.30;;;;;;;;;;12599053;28;20028;-79
2022/09/21 08:26:23;;;;;;;0.28;0.28;;;;;;;;;;12565283;28;20092;-79
2022/09/21 08:32:25;;;;;;;0.52;0.40;;;;;;;;;;12609058;28;20051;-79
2022/09/21 08:38:27;;;;;;;2.03;0.40;;;;;;;;;;12607514;28;20434;-80
2022/09/21 08:44:32;;;;;;;0.65;0.30;;;;;;;;;;12571773;28;20036;-81
2022/09/21 08:50:42;;;;;;;0.73;0.40;;;;;;;;;;12613562;28;20056;-80
2022/09/21 08:56:44;;;;;;;0.30;0.25;;;;;;;;;;12596056;28;20055;-78
2022/09/21 09:02:55;;;;;;;0.20;0.20;;;;;;;;;;12610214;28;20031;-79
2022/09/21 09:09:20;;;;;;;0.43;0.30;;;;;;;;;;12605495;28;20051;-78
2022/09/21 09:15:37;;;;;;;0.20;0.20;;;;;;;;;;12579769;28;20036;-78
2022/09/21 09:21:41;;;;;;;0.15;0.10;;;;;;;;;;12600390;28;20032;-80
2022/09/21 09:27:44;;;;;;;1.02;0.40;;;;;;;;;;12572705;28;20048;-77
2022/09/21 09:33:49;;;;;;;0.20;0.20;;;;;;;;;;12590047;28;20082;-78
2022/09/21 09:39:53;;;;;;;0.30;0.20;;;;;;;;;;12580079;28;20040;-79
2022/09/21 09:45:58;;;;;;;0.20;0.20;;;;;;;;;;12586272;28;20024;-80
2022/09/21 09:52:00;;;;;;;0.13;0.10;;;;;;;;;;12574591;28;20422;-79
2022/09/21 09:58:02;;;;;;;0.47;0.20;;;;;;;;;;12579379;28;20033;-78
2022/09/21 10:04:05;;;;;;;0.10;0.10;;;;;;;;;;12590393;28;20063;-79
2022/09/21 10:10:22;;;;;;;0.32;0.10;;;;;;;;;;12605267;28;20058;-79
2022/09/21 10:16:24;;;;;;;0.20;0.10;;;;;;;;;;12579639;28;20108;-80
2022/09/21 10:22:29;;;;;;;0.22;0.10;;;;;;;;;;12578754;28;20040;-80
2022/09/21 10:28:31;;;;;;;0.30;0.10;;;;;;;;;;12589315;28;20032;-78
2022/09/21 10:34:34;;;;;;;0.10;0.10;;;;;;;;;;12573181;28;20126;-80
2022/09/21 10:40:36;;;;;;;0.30;0.10;;;;;;;;;;12600911;28;20426;-79
2022/09/21 10:46:38;;;;;;;;;;;;;;;;;;12609866;28;20353;-81
2022/09/21 10:52:42;;;;;;;0.28;0.20;;;;;;;;;;12634702;28;19939;-81
2022/09/21 10:59:04;;;;;;;0.30;0.22;;;;;;;;;;12584894;28;20493;-78
2022/09/21 11:05:09;;;;;;;0.20;0.20;;;;;;;;;;12608217;28;20349;-80
2022/09/21 11:11:11;;;;;;;0.82;0.20;;;;;;;;;;12575864;28;20217;-78
2022/09/21 11:17:12;;;;;;;0.10;0.10;;;;;;;;;;12591806;28;20036;-81
2022/09/21 11:23:33;;;;;;;0.10;0.10;;;;;;;;;;12604313;28;20039;-80
2022/09/21 11:29:41;;;;;;;0.20;0.17;;;;;;;;;;12592817;28;20290;-80
2022/09/21 11:35:46;;;;;;;0.43;0.10;;;;;;;;;;12607299;28;20095;-79
2022/09/21 11:41:51;;;;;;;0.30;0.20;;;;;;;;;;12598526;28;20353;-79
2022/09/21 11:47:53;;;;;;;0.32;0.20;;;;;;;;;;12581078;28;20052;-78
2022/09/21 11:53:56;;;;;;;0.10;0.10;;;;;;;;;;12592516;28;20083;-78
2022/09/21 11:59:59;;;;;;;0.80;0.10;;;;;;;;;;12594407;28;20032;-78
2022/09/21 12:06:13;;;;;;;0.30;0.20;;;;;;;;;;12602097;28;20024;-79
2022/09/21 12:12:29;;;;;;;0.40;0.10;;;;;;;;;;12597879;28;20048;-78
2022/09/21 12:18:38;;;;;;;0.22;0.10;;;;;;;;;;12619107;28;20035;-78
2022/09/21 12:24:43;;;;;;;0.13;0.10;;;;;;;;;;12589829;28;20024;-78
2022/09/21 12:30:47;;;;;;;0.20;0.20;;;;;;;;;;12594683;28;20357;-79
2022/09/21 12:37:12;;;;;;;0.73;0.10;;;;;;;;;;12599022;28;20067;-78
2022/09/21 12:43:32;;;;;;;0.20;0.20;;;;;;;;;;12602412;28;20060;-78
2022/09/21 12:49:38;;;;;;;0.10;0.10;;;;;;;;;;12589400;28;20122;-78
2022/09/21 12:55:44;;;;;;;0.15;0.10;;;;;;;;;;12582073;28;20913;-78
2022/09/21 13:01:54;;;;;;;0.32;0.00;;;;;;;;;;12605267;28;20043;-79
2022/09/21 13:08:08;;;;;;;1.75;0.20;;;;;;;;;;12598624;28;20032;-81
2022/09/21 13:14:12;;;;;;;0.30;0.10;;;;;;;;;;12621557;28;20052;-80
2022/09/21 13:20:19;;;;;;;0.35;0.30;;;;;;;;;;12606851;28;20060;-80
2022/09/21 13:26:35;;;;;;;0.10;0.10;;;;;;;;;;12578746;28;20091;-80
2022/09/21 13:32:50;;;;;;;0.20;0.05;;;;;;;;;;12609144;28;20465;-82
2022/09/21 13:38:52;;;;;;;0.22;0.10;;;;;;;;;;12610856;28;20036;-80
2022/09/21 13:44:54;;;;;;;;;;;;;;;;;;12605584;28;20039;-79
2022/09/21 13:50:57;;;;;;;0.20;0.10;;;;;;;;;;12624624;28;20047;-80
2022/09/21 13:57:04;;;;;;;1.23;0.20;;;;;;;;;;12626701;28;20468;-79
2022/09/21 14:03:17;;;;;;;0.60;0.10;;;;;;;;;;12614849;28;20029;-79
2022/09/21 14:09:24;;;;;;;0.10;0.10;;;;;;;;;;12613609;28;20044;-79
2022/09/21 14:15:26;;;;;;;0.43;0.10;;;;;;;;;;12632132;28;20044;-79
2022/09/21 14:21:28;;;;;;;0.60;0.17;;;;;;;;;;12604659;28;20134;-79
2022/09/21 14:27:32;;;;;;;0.17;0.10;;;;;;;;;;12627142;28;20036;-80
2022/09/21 14:33:47;;;;;;;0.60;0.30;;;;;;;;;;12622344;28;20048;-80
2022/09/21 14:39:49;;;;;;;1.80;0.30;;;;;;;;;;12617839;28;20437;-79
2022/09/21 14:45:58;;;;;;;0.35;0.05;;;;;;;;;;12612405;28;20181;-80
2022/09/21 14:52:10;;;;;;;0.40;0.10;;;;;;;;;;12615147;28;20052;-78
2022/09/21 14:58:13;;;;;;;0.43;0.20;;;;;;;;;;12623764;28;20119;-78
2022/09/21 15:04:50;;;;;;;0.77;0.20;;;;;;;;;;12631781;28;20028;-79
2022/09/21 15:11:10;;;;;;;0.93;0.20;;;;;;;;;;12559838;28;20048;-79
2022/09/21 15:17:25;;;;;;;0.10;0.00;;;;;;;;;;12635725;28;20028;-79
2022/09/21 15:23:28;;;;;;;0.00;0.00;;;;;;;;;;12634446;28;20032;-79
2022/09/21 15:29:31;;;;;;;0.75;0.17;;;;;;;;;;12617246;28;20040;-79
2022/09/21 15:35:34;;;;;;;0.50;0.20;;;;;;;;;;12633299;28;20035;-79
2022/09/21 15:41:38;;;;;;;0.77;0.10;;;;;;;;;;12634132;28;20028;-78
2022/09/21 15:47:41;;;;;;;1.17;0.10;;;;;;;;;;12633311;28;20048;-78
2022/09/21 15:53:45;;;;;;;0.90;0.20;;;;;;;;;;12631475;28;20056;-78
2022/09/21 15:59:47;;;;;;;0.22;0.10;;;;;;;;;;12633404;28;20028;-78
2022/09/21 16:05:50;;;;;;;0.08;0.03;;;;;;;;;;12633178;28;20475;-78
2022/09/21 16:11:52;;;;;;;0.17;0.10;;;;;;;;;;12632338;28;20070;-78
2022/09/21 16:17:57;;;;;;;0.28;0.10;;;;;;;;;;12633679;28;20329;-78
2022/09/21 16:24:19;;;;;;;0.20;0.20;;;;;;;;;;12635912;28;20499;-78
2022/09/21 16:30:40;;;;;;;0.30;0.10;;;;;;;;;;12630884;28;20040;-78
2022/09/21 16:36:43;;;;;;;0.10;0.10;;;;;;;;;;12631428;28;20052;-79
2022/09/21 16:42:45;;;;;;;0.20;0.10;;;;;;;;;;12631981;28;20032;-79
2022/09/21 16:48:48;;;;;;;0.45;0.20;;;;;;;;;;12630408;28;20055;-79
2022/09/21 16:54:50;;;;;;;0.38;0.20;;;;;;;;;;12631550;28;20079;-79
2022/09/21 17:00:53;;;;;;;0.50;0.20;;;;;;;;;;12630381;28;20028;-79
2022/09/21 17:06:55;;;;;;;;;;;;;;;;;;12630977;28;20038;-79
2022/09/21 17:12:58;;;;;;;0.22;0.20;;;;;;;;;;12612281;28;19923;-79
2022/09/21 17:18:59;;;;;;;0.17;0.17;;;;;;;;;;12630602;28;20028;-79
2022/09/21 17:25:01;;;;;;;0.30;0.10;;;;;;;;;;12628523;28;20055;-79
2022/09/21 17:31:05;;;;;;;0.30;0.10;;;;;;;;;;12628887;28;20366;-79
2022/09/21 17:37:10;;;;;;;0.30;0.28;;;;;;;;;;12629206;28;20036;-79
2022/09/21 17:43:12;;;;;;;0.52;0.25;;;;;;;;;;12626805;28;20047;-78
2022/09/21 17:49:14;;;;;;;0.23;0.20;;;;;;;;;;12645053;28;20056;-79
2022/09/21 17:55:16;;;;;;;1.03;0.37;;;;;;;;;;12645886;28;20048;-80
2022/09/21 18:01:18;;;;;;;0.20;0.20;;;;;;;;;;12645793;28;20397;-80
2022/09/21 18:07:20;;;;;;;0.23;0.20;;;;;;;;;;12645475;28;20469;-79
2022/09/21 18:13:28;;;;;;;0.40;0.27;;;;;;;;;;12645287;28;20048;-79
2022/09/21 18:19:46;;;;;;;0.70;0.43;;;;;;;;;;12645789;28;20043;-80
2022/09/21 18:25:51;;;;;;;1.48;0.40;;;;;;;;;;12642707;28;20054;-79
2022/09/21 18:32:11;;;;;;;0.20;0.15;;;;;;;;;;12644058;28;20071;-80
2022/09/21 18:38:37;;;;;;;0.30;0.30;;;;;;;;;;12625969;28;20043;-80
2022/09/21 18:44:46;;;;;;;0.70;0.32;;;;;;;;;;12637172;28;20054;-79
2022/09/21 18:51:01;;;;;;;0.32;0.32;;;;;;;;;;12627288;28;20048;-80
2022/09/21 18:57:10;;;;;;;0.70;0.40;;;;;;;;;;12641666;28;20161;-79
2022/09/21 19:03:14;;;;;;;0.57;0.40;;;;;;;;;;12637159;28;20036;-80
2022/09/21 19:09:35;;;;;;;1.05;0.40;;;;;;;;;;12636682;28;20036;-79
2022/09/21 19:15:52;;;;;;;0.43;0.40;;;;;;;;;;12636166;28;20123;-78
2022/09/21 19:21:55;;;;;;;1.10;0.63;;;;;;;;;;12634754;28;20043;-79
2022/09/21 19:28:02;;;;;;;0.40;0.40;;;;;;;;;;12635819;28;20032;-79
2022/09/21 19:34:22;;;;;;;0.77;0.60;;;;;;;;;;12636064;28;20093;-79
2022/09/21 19:40:31;;;;;;;0.80;0.50;;;;;;;;;;12636925;28;20036;-79
2022/09/21 19:46:36;;;;;;;1.95;0.90;;;;;;;;;;12636006;28;20039;-78
2022/09/21 19:52:38;;;;;;;1.55;0.77;;;;;;;;;;12635808;28;20173;-79
2022/09/21 20:05:10;;;;;;;1.20;0.80;;;;;;;;;;12636073;28;20402;-79
2022/09/21 20:11:19;;;;;;;2.00;0.93;;;;;;;;;;12634184;28;20119;-78
2022/09/21 20:17:24;;;;;;;1.80;0.88;;;;;;;;;;12635293;28;20077;-79
2022/09/21 20:23:27;;;;;;;0.68;0.68;;;;;;;;;;12616100;28;20043;-79
2022/09/21 20:29:29;;;;;;;0.90;0.60;;;;;;;;;;12634135;28;20145;-79
2022/09/21 20:35:32;;;;;;;0.90;0.80;;;;;;;;;;12632545;28;20035;-79
2022/09/21 20:41:33;;;;;;;;;;;;;;;;;;12633598;28;20032;-79
2022/09/21 20:47:35;;;;;;;0.80;0.70;;;;;;;;;;12614497;28;19920;-79
2022/09/21 20:53:39;;;;;;;0.73;0.70;;;;;;;;;;12632947;28;20066;-78
2022/09/21 20:59:41;;;;;;;1.20;0.70;;;;;;;;;;12631440;28;20043;-78
2022/09/21 21:05:42;;;;;;;0.73;0.73;;;;;;;;;;12632977;28;20488;-78
2022/09/21 21:11:44;;;;;;;0.70;0.70;;;;;;;;;;12630621;28;20305;-78
2022/09/21 21:17:47;;;;;;;0.83;0.60;;;;;;;;;;12615698;28;20032;-79
2022/09/21 21:30:10;;;;;;;1.25;0.73;;;;;;;;;;12631729;28;20044;-78
2022/09/21 21:36:13;;;;;;;0.80;0.80;;;;;;;;;;12631797;28;20044;-79
2022/09/21 21:42:15;;;;;;;1.15;1.02;;;;;;;;;;12632074;28;20032;-78
2022/09/21 21:48:17;;;;;;;0.90;0.83;;;;;;;;;;12630106;28;20071;-78
2022/09/21 21:54:22;;;;;;;0.90;0.90;;;;;;;;;;12631677;28;20431;-79
2022/09/21 22:00:25;;;;;;;0.70;0.70;;;;;;;;;;12631853;28;20418;-79
2022/09/21 22:06:27;;;;;;;0.75;0.75;;;;;;;;;;12631156;28;20077;-78
2022/09/21 22:12:30;;;;;;;1.33;1.10;;;;;;;;;;12631409;28;20452;-79
2022/09/21 22:18:32;;;;;;;;;;;;;;;;;;12632763;28;20035;-79
2022/09/21 22:24:33;;;;;;;1.05;0.95;;;;;;;;;;12630082;28;19912;-79
2022/09/21 22:30:35;;;;;;;1.33;1.23;;;;;;;;;;12631489;28;20090;-79
2022/09/21 22:36:38;;;;;;;1.52;1.42;;;;;;;;;;12639110;28;20032;-79
2022/09/21 22:42:40;;;;;;;1.07;0.97;;;;;;;;;;12639420;28;20028;-79
2022/09/21 22:48:42;;;;;;;1.40;1.17;;;;;;;;;;12638374;28;20298;-79
2022/09/21 22:54:44;;;;;;;1.15;1.05;;;;;;;;;;12638221;28;20043;-79
2022/09/21 23:00:45;;;;;;;2.07;1.10;;;;;;;;;;12638162;28;20433;-79
2022/09/21 23:06:51;;;;;;;1.13;1.13;;;;;;;;;;12638305;28;20024;-79
2022/09/21 23:12:53;;;;;;;1.42;1.23;;;;;;;;;;12636147;28;20047;-79
2022/09/21 23:18:55;;;;;;;1.33;1.23;;;;;;;;;;12636824;28;20329;-79
2022/09/21 23:24:57;;;;;;;1.47;1.30;;;;;;;;;;12635765;28;20051;-79
2022/09/21 23:30:59;;;;;;;1.40;1.30;;;;;;;;;;12636631;28;20036;-79
2022/09/21 23:37:04;;;;;;;1.20;1.13;;;;;;;;;;12636134;28;20500;-79
2022/09/21 23:43:06;;;;;;;1.10;1.10;;;;;;;;;;12632364;28;20051;-80
2022/09/21 23:49:08;;;;;;;1.27;1.20;;;;;;;;;;12634614;28;20052;-79
2022/09/21 23:55:09;;;;;;;1.43;1.20;;;;;;;;;;12634180;28;20047;-79
